Terminal Aerodrome Forecast
Issued by NWS Wilmington, OH

Current Version | Previous Version | Text Only | Print | Product List | Glossary Off
Versions: 1 2 3 4 5 6 7 8 9 10 11 12 13 14 15 16 17

392
FTUS41 KILN 032333
TAFDAY
TAF
KDAY 032333Z 0400/0424 26016G27KT P6SM OVC028
      TEMPO 0400/0402 OVC040
     FM040300 26013KT P6SM OVC015
     FM041500 27010KT P6SM BKN025
     FM042200 28007KT P6SM FEW025=

USA.gov is the U.S. government's official web portal to all federal, state and local government web resources and services.